This is the latest recevied weather packets stored in our database for station/object E20YUC-1. If no packets are shown the sender has not sent any weather packets the latest 10 day(s).
| Time | Temp. | Humidity | Pressure | Rain* | Wind** | Luminosity | Snow |
|---|---|---|---|---|---|---|---|
| 1777110105 | 33.33° C | 60% | 994.8 hPa | 0 mm | 0 m/s | - | - |
| 1777109503 | 32.78° C | 60% | 995.2 hPa | 0 mm | 0 m/s | - | - |
| 1777108903 | 32.78° C | 60% | 995.5 hPa | 0 mm | 1.34 m/s, 22° | - | - |
| 1777108605 | 32.78° C | 60% | 995.3 hPa | 0 mm | 1.79 m/s, 22° | - | - |
| 1777108303 | 32.78° C | 60% | 995.4 hPa | 0 mm | 1.34 m/s, 22° | - | - |
| 1777107703 | 32.78° C | 60% | 995.9 hPa | 0 mm | 4.47 m/s, 22° | - | - |
| 1777107403 | 33.33° C | 61% | 995.8 hPa | 0 mm | 0 m/s | - | - |
| 1777107105 | 33.33° C | 61% | 995.9 hPa | 0 mm | 1.79 m/s, 292° | - | - |
| 1777106803 | 33.33° C | 61% | 996.3 hPa | 0 mm | 4.47 m/s, 0° | - | - |
| 1777106503 | 33.33° C | 60% | 996.4 hPa | 0 mm | 1.34 m/s, 292° | - | - |
| 1777106203 | 33.89° C | 59% | 996.3 hPa | 0 mm | 1.79 m/s, 22° | - | - |
| 1777105903 | 34.44° C | 59% | 996.4 hPa | 0 mm | 3.13 m/s, 22° | - | - |
| 1777105605 | 35° C | 60% | 996.4 hPa | 0 mm | 0 m/s | - | - |
| 1777105303 | 35° C | 61% | 996.1 hPa | 0 mm | 0 m/s | - | - |
| 1777105003 | 35° C | 62% | 995.7 hPa | 0 mm | 0 m/s | - | - |
| 1777104703 | 35° C | 62% | 995.7 hPa | 0 mm | 0 m/s | - | - |
| 1777104403 | 34.44° C | 62% | 995.8 hPa | 0 mm | 0 m/s | - | - |
| 1777104104 | 34.44° C | 62% | 995.8 hPa | 0 mm | 0 m/s | - | - |
| 1777103502 | 34.44° C | 62% | 995.5 hPa | 0 mm | 0.89 m/s, 0° | - | - |
| 1777103202 | 34.44° C | 61% | 995.6 hPa | 0 mm | 2.68 m/s, 0° | - | - |
| 1777102902 | 34.44° C | 61% | 995.6 hPa | 0 mm | 3.13 m/s, 0° | - | - |
| 1777102604 | 34.44° C | 61% | 995.6 hPa | 0 mm | 1.34 m/s, 0° | - | - |
| 1777102302 | 34.44° C | 61% | 995.5 hPa | 0 mm | 0.89 m/s, 0° | - | - |
| 1777102002 | 35° C | 61% | 995.5 hPa | 0 mm | 0 m/s | - | - |
| 1777101402 | 35° C | 60% | 995.5 hPa | 0 mm | 2.24 m/s, 0° | - | - |
* Rain latest hour (hover to see other rain measurements)
** Current wind speed in m/s (hover to see current wind gust speed)